X  ZavřítMETAR data      LKPD Pardubice

Teplota

22°C Teplota

13°C Rosný bod

57% Vlhkost



Vítr

10 KM/H

 6 MPH

 3 M/S

 5 KTS



310°
SZ směr
Současné podmínky

Převážně polojasno Převážně polojasno
Tlak vzduchu 1015.92 (hPa) - 30 (in)
Dohlednost 6.2 (mi) - 10 (km)
Letiště
Kód letiště LKPD

Lokace Pardubice 80 (km)

Metar:
LKPD 031230Z 31005KT 9999 SCT034 BKN080 22/13 Q1016 NOSIG RMK BLU BLU

Čas: 03-07-2020 14:30